Mission Field
KLVM : rendu visible

Aérodrome :











RETROUVEZ-NOUS SUR...

 
LOGIN :

S'inscrire | Disclaimer

   EN    FR    IT 

 









Légende :    VFR   VFR Marginal   IFR   IFR Intensif   IFR Très Intensif
Visi : 
Plafond : 
>= 8 km
>= 3000ft
5 à 8 km
1000 à 3000 ft
1500m à 5 km
500 à 1000 ft
800 à 1500m
200 à 500 ft
< 800m
< 200 ft
Symboles :   Orages  Brouillard  Fortes neiges  Fortes précipitations  Vent > 20 kt






- Altitude de l'aérodrome : 4660 ft


KLVM - Mission Field

DERNIER METAR :
  • 241553Z AUTO 24026G34KT 10SM SCT065 SCT085 M01/M08 A3002 RMK AO2 PK WND 25039/1536 SLP188 T10061078

METARs EXPIRÉS :
  • 241453Z AUTO 24022G30KT 10SM BKN080 M02/M08 A3000 RMK AO2 PK WND 23030/1443 SLP183 T10221078 51017
  • 241353Z AUTO 23016G24KT 10SM OVC095 M02/M09 A3000 RMK AO2 PK WND 23028/1319 SLP178 T10171089

TAF KLVM
Valide du 24 à 12h jusqu'au 25 à 12h UTC


241138Z 2412/2512 25015G28KT P6SM VCSH FEW030 SCT060 BKN150
FM242300 30018KT 6SM -SN SCT025 BKN050
FM250100 31015KT 3SM -SN BKN018
FM250700 33011KT P6SM SCT020 BKN040



MET'MAP, la Météo Aéronautique d'un coup d'oeil ! - Copyright ORBIFLY Décembre 2007 - Disclaimer

ORBIFLY MET'MAP TEAM :

Programmation & Développement : Alexandra Zaïnal
Sur une idée originale de : Baudouin d'Aumeries
Assistance à la programmation : Marc-Olivier Méhu
Soutien technique & logistique : Manuel Goepfert

Contact : metmap@orbifly.com




SOURCES & CREDITS :

   NOAA       Earth
Advisory